Time;durP1;ratioP1;P1;durP2;ratioP2;P2;SDS_P1;SDS_P2;PMS_P1;PMS_P2;Temp;Humidity;BMP_temperature;BMP_pressure;BME280_temperature;BME280_humidity;BME280_pressure;Samples;Min_cycle;Max_cycle;Signal;HPM_P1;HPM_P2
2021/09/05 00:00:58;;;;;;;41.87;23.17;;;12.20;99.90;;;;;;4198808;28;20325;-79
2021/09/05 00:03:01;;;;;;;45.27;22.23;;;12.20;99.90;;;;;;4197713;28;20274;-78
2021/09/05 00:05:03;;;;;;;38.07;21.97;;;12.10;99.90;;;;;;4187215;28;20223;-78
2021/09/05 00:07:05;;;;;;;41.67;22.63;;;12.10;99.90;;;;;;4197983;28;20209;-78
2021/09/05 00:09:06;;;;;;;41.67;21.23;;;12.10;99.90;;;;;;4191849;28;20296;-79
2021/09/05 00:11:08;;;;;;;38.37;21.67;;;12.10;99.90;;;;;;4198524;28;20214;-79
2021/09/05 00:13:10;;;;;;;36.80;21.40;;;12.10;99.90;;;;;;4191624;28;20265;-79
2021/09/05 00:15:12;;;;;;;34.20;19.97;;;12.10;99.90;;;;;;4195556;28;20276;-79
2021/09/05 00:17:14;;;;;;;39.00;22.30;;;12.10;99.90;;;;;;4196777;28;20264;-79
2021/09/05 00:19:17;;;;;;;37.00;21.83;;;12.00;99.90;;;;;;4196454;28;20215;-79
2021/09/05 00:21:19;;;;;;;38.97;22.50;;;12.00;99.90;;;;;;4211016;28;20250;-79
2021/09/05 00:23:21;;;;;;;38.23;22.80;;;12.00;99.90;;;;;;4203220;28;20302;-78
2021/09/05 00:25:22;;;;;;;40.10;23.37;;;12.00;99.90;;;;;;4193549;28;20649;-78
2021/09/05 00:27:24;;;;;;;45.90;24.03;;;11.90;99.90;;;;;;4198476;28;20217;-79
2021/09/05 00:29:26;;;;;;;39.07;22.77;;;11.90;99.90;;;;;;4196074;28;20220;-79
2021/09/05 00:31:28;;;;;;;40.43;23.33;;;11.90;99.90;;;;;;4190257;28;20207;-79
2021/09/05 00:33:31;;;;;;;42.57;23.63;;;11.90;99.90;;;;;;4196611;28;20576;-78
2021/09/05 00:35:34;;;;;;;38.80;21.87;;;11.80;99.90;;;;;;4214869;28;20672;-78
2021/09/05 00:37:36;;;;;;;37.00;22.00;;;12.00;99.90;;;;;;4192111;28;20216;-79
2021/09/05 00:39:37;;;;;;;33.63;20.73;;;11.70;99.90;;;;;;4180957;28;20246;-78
2021/09/05 00:41:39;;;;;;;35.57;20.13;;;11.80;99.90;;;;;;4197498;28;20317;-79
2021/09/05 00:43:55;;;;;;;38.10;20.00;;;11.70;99.90;;;;;;4208040;28;20248;-79
2021/09/05 00:45:57;;;;;;;33.73;19.20;;;11.70;99.90;;;;;;4199062;28;20668;-79
2021/09/05 00:48:00;;;;;;;31.53;19.20;;;11.70;99.90;;;;;;4198712;28;20252;-79
2021/09/05 00:50:02;;;;;;;35.00;18.93;;;11.70;99.90;;;;;;4192615;28;20211;-78
2021/09/05 00:52:07;;;;;;;34.23;18.60;;;11.60;99.90;;;;;;4192586;28;20215;-80
2021/09/05 00:54:10;;;;;;;35.77;20.13;;;11.60;99.90;;;;;;4205601;28;20220;-79
2021/09/05 00:56:12;;;;;;;40.27;23.33;;;11.60;99.90;;;;;;4201521;28;20211;-78
2021/09/05 00:58:14;;;;;;;39.07;22.97;;;11.60;99.90;;;;;;4192849;28;20207;-79
2021/09/05 01:00:19;;;;;;;39.70;23.77;;;11.60;99.90;;;;;;4197875;28;20220;-78
2021/09/05 01:02:21;;;;;;;38.77;21.97;;;11.60;99.90;;;;;;4206884;28;20632;-79
2021/09/05 01:04:22;;;;;;;36.40;21.37;;;11.60;99.90;;;;;;4210542;28;20251;-80
2021/09/05 01:06:24;;;;;;;39.10;20.67;;;11.50;99.90;;;;;;4210422;28;20206;-79
2021/09/05 01:08:28;;;;;;;34.10;20.70;;;11.50;99.90;;;;;;4180728;28;20211;-78
2021/09/05 01:10:29;;;;;;;34.20;20.13;;;11.50;99.90;;;;;;4201611;28;20214;-79
2021/09/05 01:12:31;;;;;;;37.13;20.47;;;11.50;99.90;;;;;;4209704;28;20741;-79
2021/09/05 01:14:33;;;;;;;36.10;20.83;;;11.50;99.90;;;;;;4205207;28;20707;-78
2021/09/05 01:16:37;;;;;;;41.70;21.53;;;11.40;99.90;;;;;;4197452;28;20572;-82
2021/09/05 01:18:38;;;;;;;39.57;21.87;;;11.40;99.90;;;;;;4213056;28;20243;-78
2021/09/05 01:20:40;;;;;;;37.93;22.07;;;11.40;99.90;;;;;;4200439;28;20202;-79
2021/09/05 01:22:42;;;;;;;35.87;21.33;;;11.40;99.90;;;;;;4196497;28;20210;-79
2021/09/05 01:24:45;;;;;;;39.17;21.23;;;11.30;99.90;;;;;;4191036;28;20233;-79
2021/09/05 01:26:50;;;;;;;37.00;20.33;;;11.30;99.90;;;;;;4196194;28;20644;-78
2021/09/05 01:28:53;;;;;;;34.47;19.83;;;11.30;99.90;;;;;;4203754;28;20215;-80
2021/09/05 01:30:55;;;;;;;34.70;20.57;;;11.30;99.90;;;;;;4204343;28;20691;-81
2021/09/05 01:32:57;;;;;;;36.10;20.83;;;11.30;99.90;;;;;;4193868;28;20218;-78
2021/09/05 01:34:58;;;;;;;33.60;19.73;;;11.50;99.90;;;;;;4201849;28;20233;-78
2021/09/05 01:37:00;;;;;;;36.30;19.00;;;11.20;99.90;;;;;;4205507;28;20202;-78
2021/09/05 01:39:02;;;;;;;30.10;17.87;;;11.20;99.90;;;;;;4212842;28;20633;-79
2021/09/05 01:41:04;;;;;;;30.13;17.60;;;11.20;99.90;;;;;;4207711;28;20201;-78
2021/09/05 01:43:06;;;;;;;37.00;17.90;;;11.20;99.90;;;;;;4203280;28;20261;-80
2021/09/05 01:45:10;;;;;;;29.70;16.93;;;11.10;99.90;;;;;;4203745;28;20233;-83
2021/09/05 01:47:12;;;;;;;28.80;17.63;;;11.20;99.90;;;;;;4200680;28;20210;-81
2021/09/05 01:49:14;;;;;;;30.67;18.17;;;11.10;99.90;;;;;;4208642;28;20206;-78
2021/09/05 01:51:16;;;;;;;27.70;17.70;;;11.10;99.90;;;;;;4208881;28;20261;-80
2021/09/05 01:53:17;;;;;;;27.50;16.17;;;11.10;99.90;;;;;;4196311;28;20205;-78
2021/09/05 01:55:20;;;;;;;29.97;16.80;;;11.10;99.90;;;;;;4201052;28;20234;-78
2021/09/05 01:57:21;;;;;;;28.07;17.03;;;11.00;99.90;;;;;;4211296;28;20206;-77
2021/09/05 01:59:23;;;;;;;27.53;16.50;;;11.10;99.90;;;;;;4193240;28;20714;-78
2021/09/05 02:01:27;;;;;;;33.67;17.67;;;11.00;99.90;;;;;;4185579;28;20264;-78
2021/09/05 02:03:29;;;;;;;30.50;17.40;;;11.00;99.90;;;;;;4207026;28;20202;-80
2021/09/05 02:05:30;;;;;;;30.00;17.17;;;10.90;99.90;;;;;;4214756;28;20266;-79
2021/09/05 02:07:32;;;;;;;28.80;17.23;;;10.90;99.90;;;;;;4210359;28;20217;-79
2021/09/05 02:09:34;;;;;;;28.13;17.47;;;11.20;99.90;;;;;;4184376;28;20221;-82
2021/09/05 02:11:36;;;;;;;31.23;17.70;;;10.90;99.90;;;;;;4207767;28;20237;-77
2021/09/05 02:13:37;;;;;;;30.93;17.57;;;10.90;99.90;;;;;;4216403;28;20210;-78
2021/09/05 02:15:40;;;;;;;30.87;17.60;;;10.90;99.90;;;;;;4202744;28;20744;-83
2021/09/05 02:17:43;;;;;;;30.37;17.90;;;10.90;99.90;;;;;;4204568;28;20206;-77
2021/09/05 02:19:45;;;;;;;31.97;18.07;;;10.70;99.90;;;;;;4198959;28;20218;-78
2021/09/05 02:21:47;;;;;;;34.03;18.53;;;11.00;99.90;;;;;;4204779;28;20205;-80
2021/09/05 02:23:48;;;;;;;29.27;17.10;;;10.80;99.90;;;;;;4216056;28;20241;-78
2021/09/05 02:25:50;;;;;;;28.77;16.60;;;10.80;99.90;;;;;;4200328;28;20202;-78
2021/09/05 02:27:52;;;;;;;30.90;17.53;;;10.70;99.90;;;;;;4207876;28;20673;-78
2021/09/05 02:29:54;;;;;;;31.83;18.10;;;10.80;99.90;;;;;;4215657;28;20201;-78
2021/09/05 02:31:57;;;;;;;32.57;18.33;;;10.80;99.90;;;;;;4214545;28;20209;-78
2021/09/05 02:34:01;;;;;;;30.77;18.03;;;10.80;99.90;;;;;;4201614;28;20226;-79
2021/09/05 02:36:02;;;;;;;28.60;16.53;;;10.70;99.90;;;;;;4198853;28;20198;-79
2021/09/05 02:38:04;;;;;;;29.13;17.67;;;10.70;99.90;;;;;;4197489;28;20651;-78
2021/09/05 02:40:08;;;;;;;26.93;16.33;;;10.90;99.90;;;;;;4199348;28;20272;-79
2021/09/05 02:42:10;;;;;;;29.23;17.30;;;10.70;99.90;;;;;;4199290;28;20252;-80
2021/09/05 02:44:11;;;;;;;29.57;17.73;;;10.70;99.90;;;;;;4181798;28;20231;-79
2021/09/05 02:46:13;;;;;;;32.37;17.83;;;11.00;99.90;;;;;;4199060;28;20222;-78
2021/09/05 02:48:15;;;;;;;28.83;17.27;;;10.70;99.90;;;;;;4202214;28;20658;-77
2021/09/05 02:50:18;;;;;;;30.33;17.13;;;10.60;99.90;;;;;;4211641;28;20215;-78
2021/09/05 02:52:20;;;;;;;29.20;17.13;;;10.60;99.90;;;;;;4190848;28;20256;-79
2021/09/05 02:54:22;;;;;;;31.43;18.23;;;10.60;99.90;;;;;;4196169;28;20264;-79
2021/09/05 02:56:23;;;;;;;32.00;18.20;;;10.60;99.90;;;;;;4198211;28;20229;-78
2021/09/05 02:58:25;;;;;;;29.47;16.73;;;10.60;99.90;;;;;;4210222;28;20250;-79
2021/09/05 03:00:27;;;;;;;29.17;17.33;;;11.00;99.90;;;;;;4185743;28;20277;-77
2021/09/05 03:02:29;;;;;;;30.43;17.90;;;10.90;99.90;;;;;;4203190;28;20222;-77
2021/09/05 03:04:31;;;;;;;30.17;17.33;;;10.50;99.90;;;;;;4214783;28;20313;-78
2021/09/05 03:06:34;;;;;;;30.40;17.10;;;10.50;99.90;;;;;;4212712;28;20220;-79
2021/09/05 03:08:35;;;;;;;30.70;17.23;;;10.50;99.90;;;;;;4214743;28;20251;-78
2021/09/05 03:10:37;;;;;;;30.73;17.63;;;10.80;99.90;;;;;;4183222;28;20215;-77
2021/09/05 03:12:39;;;;;;;29.50;16.77;;;10.30;99.90;;;;;;4205823;28;20626;-78
2021/09/05 03:14:41;;;;;;;31.40;17.30;;;10.50;99.90;;;;;;4200427;28;20763;-80
2021/09/05 03:16:42;;;;;;;30.57;16.97;;;10.40;99.90;;;;;;4205811;28;20221;-80
2021/09/05 03:18:44;;;;;;;26.90;16.90;;;10.40;99.90;;;;;;4199399;28;20211;-80
2021/09/05 03:20:46;;;;;;;28.90;16.03;;;10.40;99.90;;;;;;4189932;28;20202;-80
2021/09/05 03:22:49;;;;;;;29.43;17.27;;;10.40;99.90;;;;;;4215111;28;20666;-80
2021/09/05 03:24:51;;;;;;;27.93;16.40;;;10.40;99.90;;;;;;4215106;28;20468;-78
2021/09/05 03:26:52;;;;;;;30.30;17.30;;;10.30;99.90;;;;;;4205726;28;20210;-78
2021/09/05 03:28:55;;;;;;;28.97;17.00;;;10.40;99.90;;;;;;4203449;28;20206;-78
2021/09/05 03:30:57;;;;;;;30.20;16.77;;;10.30;99.90;;;;;;4207013;28;20275;-81
2021/09/05 03:32:58;;;;;;;29.27;16.57;;;10.30;99.90;;;;;;4214720;28;20213;-77
2021/09/05 03:35:00;;;;;;;28.53;16.30;;;10.30;99.90;;;;;;4195748;28;20230;-77
2021/09/05 03:37:02;;;;;;;25.73;16.23;;;10.30;99.90;;;;;;4208986;28;20213;-77
2021/09/05 03:39:05;;;;;;;26.60;15.80;;;10.30;99.90;;;;;;4197843;28;20256;-80
2021/09/05 03:41:07;;;;;;;28.70;16.77;;;10.20;99.90;;;;;;4196351;28;20285;-78
2021/09/05 03:43:08;;;;;;;25.93;15.00;;;10.20;99.90;;;;;;4206484;28;20703;-79
2021/09/05 03:45:11;;;;;;;27.47;15.33;;;10.20;99.90;;;;;;4195498;28;20276;-78
2021/09/05 03:47:13;;;;;;;26.47;15.07;;;10.20;99.90;;;;;;4202143;28;20236;-78
2021/09/05 03:49:15;;;;;;;25.57;15.27;;;10.40;99.90;;;;;;4200207;28;20206;-80
2021/09/05 03:51:17;;;;;;;27.27;15.73;;;10.20;99.90;;;;;;4197708;28;20205;-77
2021/09/05 03:53:19;;;;;;;23.53;14.83;;;10.30;99.90;;;;;;4196243;28;20205;-78
2021/09/05 03:55:22;;;;;;;25.27;14.90;;;10.20;99.90;;;;;;4181637;28;20222;-77
2021/09/05 03:57:23;;;;;;;24.23;14.50;;;10.20;99.90;;;;;;4205032;28;20213;-79
2021/09/05 03:59:25;;;;;;;23.37;14.60;;;10.20;99.90;;;;;;4201854;28;20267;-77
2021/09/05 04:01:29;;;;;;;22.63;14.10;;;10.20;99.90;;;;;;4200581;28;20259;-78
2021/09/05 04:03:31;;;;;;;22.13;14.30;;;10.20;99.90;;;;;;4196620;28;20213;-79
2021/09/05 04:05:32;;;;;;;24.40;13.93;;;10.20;99.90;;;;;;4198412;28;20638;-78
2021/09/05 04:07:38;;;;;;;24.23;14.13;;;10.20;99.90;;;;;;4198026;28;20210;-80
2021/09/05 04:12:00;;;;;;;23.67;14.37;;;10.10;99.90;;;;;;4197406;28;20200;-79
2021/09/05 04:14:02;;;;;;;21.93;13.27;;;10.10;99.90;;;;;;4208922;28;20233;-82
2021/09/05 04:16:04;;;;;;;22.33;13.77;;;10.10;99.90;;;;;;4213879;28;20463;-78
2021/09/05 04:18:06;;;;;;;22.20;13.93;;;10.10;99.90;;;;;;4207771;28;20569;-81
2021/09/05 04:20:08;;;;;;;22.70;13.97;;;10.10;99.90;;;;;;4187845;28;20211;-78
2021/09/05 04:22:10;;;;;;;21.07;13.53;;;10.10;99.90;;;;;;4192539;28;20202;-79
2021/09/05 04:24:12;;;;;;;25.20;14.13;;;10.10;99.90;;;;;;4205996;28;20225;-83
2021/09/05 04:26:14;;;;;;;27.13;14.90;;;10.00;99.90;;;;;;4198509;28;20206;-79
2021/09/05 04:28:17;;;;;;;24.47;14.97;;;10.00;99.90;;;;;;4193968;28;20205;-78
2021/09/05 04:30:19;;;;;;;23.40;14.30;;;10.00;99.90;;;;;;4197435;28;20202;-81
2021/09/05 04:32:21;;;;;;;21.83;13.90;;;10.00;99.90;;;;;;4180181;28;20445;-84
2021/09/05 04:34:23;;;;;;;24.47;14.93;;;10.00;99.90;;;;;;4195358;28;20491;-80
2021/09/05 04:36:24;;;;;;;23.73;14.33;;;10.00;99.90;;;;;;4197284;28;20464;-78
2021/09/05 04:38:26;;;;;;;25.30;15.10;;;9.90;99.90;;;;;;4195199;28;20466;-78
2021/09/05 04:40:28;;;;;;;25.43;14.50;;;10.00;99.90;;;;;;4183858;28;20938;-78
2021/09/05 04:42:30;;;;;;;26.30;15.23;;;9.90;99.90;;;;;;4212858;28;20454;-80
2021/09/05 04:44:33;;;;;;;25.43;15.00;;;9.90;99.90;;;;;;4197311;28;20238;-78
2021/09/05 04:46:35;;;;;;;25.40;14.73;;;10.10;99.90;;;;;;4203444;28;20221;-80
2021/09/05 04:48:36;;;;;;;26.60;15.10;;;9.80;99.90;;;;;;4199302;28;20587;-79
2021/09/05 04:50:38;;;;;;;24.87;14.20;;;9.80;99.90;;;;;;4201947;28;20218;-82
2021/09/05 04:52:40;;;;;;;24.73;13.77;;;9.80;99.90;;;;;;4205059;28;20202;-82
2021/09/05 04:54:42;;;;;;;25.83;14.07;;;9.80;99.90;;;;;;4199781;28;20487;-80
2021/09/05 04:56:43;;;;;;;21.93;13.60;;;9.80;99.90;;;;;;4197669;28;20464;-80
2021/09/05 04:58:45;;;;;;;23.47;14.53;;;9.80;99.90;;;;;;4198091;28;20518;-80
2021/09/05 05:00:48;;;;;;;26.13;14.70;;;9.80;99.90;;;;;;4202940;28;20517;-80
2021/09/05 05:02:50;;;;;;;25.80;14.10;;;9.80;99.90;;;;;;4204289;28;20206;-82
2021/09/05 05:04:52;;;;;;;22.80;13.00;;;9.80;99.90;;;;;;4193640;28;20749;-81
2021/09/05 05:06:54;;;;;;;24.87;13.83;;;9.90;99.90;;;;;;4188075;28;20461;-81
2021/09/05 05:08:55;;;;;;;21.63;13.03;;;9.80;99.90;;;;;;4189899;28;20663;-79
2021/09/05 05:10:58;;;;;;;24.87;13.63;;;9.90;99.90;;;;;;4201129;28;20202;-82
2021/09/05 05:13:00;;;;;;;22.73;12.80;;;9.90;99.90;;;;;;4202603;28;20501;-81
2021/09/05 05:15:02;;;;;;;23.83;12.80;;;9.90;99.90;;;;;;4204777;28;20488;-81
2021/09/05 05:17:05;;;;;;;24.47;13.00;;;9.90;99.90;;;;;;4203023;28;20214;-79
2021/09/05 05:19:07;;;;;;;23.00;12.37;;;9.90;99.90;;;;;;4203872;28;20491;-79
2021/09/05 05:21:09;;;;;;;24.37;13.03;;;9.90;99.90;;;;;;4210807;28;20525;-81
2021/09/05 05:23:11;;;;;;;20.83;12.73;;;9.90;99.90;;;;;;4186458;28;20846;-80
2021/09/05 05:25:12;;;;;;;23.07;12.97;;;9.90;99.90;;;;;;4205553;28;20487;-81
2021/09/05 05:27:14;;;;;;;19.43;11.87;;;9.80;99.90;;;;;;4201658;28;20251;-79
2021/09/05 05:29:16;;;;;;;20.33;11.97;;;9.80;99.90;;;;;;4192454;28;20472;-80
2021/09/05 05:31:18;;;;;;;23.00;12.30;;;9.80;99.90;;;;;;4207383;28;20258;-81
2021/09/05 05:33:21;;;;;;;20.13;12.10;;;9.80;99.90;;;;;;4192953;28;20730;-81
2021/09/05 05:35:22;;;;;;;17.77;11.63;;;9.80;99.90;;;;;;4192011;28;20230;-81
2021/09/05 05:37:24;;;;;;;18.47;12.57;;;9.70;99.90;;;;;;4207724;28;20528;-81
2021/09/05 05:39:26;;;;;;;19.13;12.23;;;9.80;99.90;;;;;;4218440;28;20512;-81
2021/09/05 05:41:27;;;;;;;18.53;12.17;;;9.70;99.90;;;;;;4214061;28;20519;-81
2021/09/05 05:43:29;;;;;;;18.90;12.27;;;9.80;99.90;;;;;;4188382;28;20570;-80
2021/09/05 05:45:31;;;;;;;21.43;12.80;;;9.80;99.90;;;;;;4187378;28;20226;-81
2021/09/05 05:47:33;;;;;;;21.50;12.97;;;9.90;99.90;;;;;;4200281;28;20521;-82
2021/09/05 05:49:38;;;;;;;24.23;13.97;;;9.90;99.90;;;;;;4204012;28;20435;-80
2021/09/05 05:51:40;;;;;;;23.87;13.47;;;9.90;99.90;;;;;;4196607;28;20213;-82
2021/09/05 05:53:42;;;;;;;24.10;14.23;;;9.90;99.90;;;;;;4198590;28;20470;-82
2021/09/05 05:55:43;;;;;;;22.60;13.60;;;10.00;99.90;;;;;;4188326;28;20271;-82
2021/09/05 05:57:45;;;;;;;23.07;13.07;;;10.10;99.90;;;;;;4200825;28;20210;-81
2021/09/05 05:59:47;;;;;;;22.87;13.43;;;10.10;99.90;;;;;;4198698;28;20213;-80
2021/09/05 06:01:49;;;;;;;20.57;13.20;;;10.20;99.90;;;;;;4199148;28;20251;-82
2021/09/05 06:03:50;;;;;;;22.67;13.80;;;10.20;99.90;;;;;;4193742;28;20238;-82
2021/09/05 06:05:53;;;;;;;19.13;12.50;;;10.30;99.90;;;;;;4195619;28;20241;-81
2021/09/05 06:07:55;;;;;;;22.23;13.60;;;10.40;99.90;;;;;;4207953;28;20639;-80
2021/09/05 06:09:57;;;;;;;21.43;13.60;;;10.50;99.90;;;;;;4183264;28;20210;-82
2021/09/05 06:11:58;;;;;;;20.70;13.00;;;10.50;99.90;;;;;;4193860;28;20209;-81
2021/09/05 06:14:00;;;;;;;25.50;14.47;;;10.60;99.90;;;;;;4202934;28;20287;-81
2021/09/05 06:16:02;;;;;;;21.10;13.90;;;10.60;99.90;;;;;;4216377;28;20217;-80
2021/09/05 06:18:04;;;;;;;23.83;13.23;;;10.70;99.90;;;;;;4189764;28;20208;-80
2021/09/05 06:20:08;;;;;;;21.57;13.87;;;10.70;99.90;;;;;;4194898;28;20676;-81
2021/09/05 06:22:11;;;;;;;20.63;13.43;;;10.70;99.90;;;;;;4199208;28;20312;-81
2021/09/05 06:24:13;;;;;;;20.83;14.17;;;10.90;99.90;;;;;;4199458;28;20720;-80
2021/09/05 06:26:14;;;;;;;22.83;13.93;;;10.80;99.90;;;;;;4184837;28;20276;-80
2021/09/05 06:28:16;;;;;;;23.10;13.17;;;10.80;99.90;;;;;;4196154;28;20252;-81
2021/09/05 06:30:18;;;;;;;26.80;14.13;;;10.80;99.90;;;;;;4203786;28;20207;-81
2021/09/05 06:32:20;;;;;;;22.57;13.63;;;10.90;99.90;;;;;;4203493;28;20218;-81
2021/09/05 06:34:21;;;;;;;24.13;14.00;;;10.90;99.90;;;;;;4194337;28;20296;-80
2021/09/05 06:36:23;;;;;;;26.13;14.73;;;10.90;99.90;;;;;;4199352;28;20634;-80
2021/09/05 06:38:26;;;;;;;23.07;13.30;;;11.00;99.90;;;;;;4199706;28;20232;-81
2021/09/05 06:40:28;;;;;;;22.67;14.20;;;11.00;99.90;;;;;;4198009;28;20677;-80
2021/09/05 06:42:30;;;;;;;27.33;14.73;;;11.10;99.90;;;;;;4187884;28;20233;-80
2021/09/05 06:44:31;;;;;;;28.47;15.33;;;11.00;99.90;;;;;;4186220;28;20236;-80
2021/09/05 06:46:33;;;;;;;23.63;14.77;;;11.20;99.90;;;;;;4197814;28;20238;-80
2021/09/05 06:48:35;;;;;;;27.87;14.53;;;11.10;99.90;;;;;;4196876;28;20211;-80
2021/09/05 06:50:37;;;;;;;31.73;15.33;;;11.20;99.90;;;;;;4199622;28;20219;-80
2021/09/05 06:52:39;;;;;;;29.53;15.70;;;11.30;99.90;;;;;;4213438;28;20218;-81
2021/09/05 06:54:42;;;;;;;30.93;15.70;;;11.30;99.90;;;;;;4216406;28;20229;-79
2021/09/05 06:56:44;;;;;;;30.40;15.60;;;11.30;99.90;;;;;;4202701;28;20274;-79
2021/09/05 06:58:46;;;;;;;30.23;15.27;;;11.30;99.90;;;;;;4194659;28;20254;-81
2021/09/05 07:00:48;;;;;;;30.37;14.93;;;11.40;99.90;;;;;;4202361;28;20233;-80
2021/09/05 07:02:49;;;;;;;27.87;13.87;;;11.40;99.90;;;;;;4208007;28;20477;-80
2021/09/05 07:04:51;;;;;;;30.87;15.03;;;11.50;99.90;;;;;;4202887;28;20284;-80
2021/09/05 07:06:53;;;;;;;34.07;15.70;;;11.50;99.90;;;;;;4195508;28;20225;-79
2021/09/05 07:08:55;;;;;;;32.23;15.33;;;11.60;99.90;;;;;;4196857;28;20552;-81
2021/09/05 07:10:58;;;;;;;33.03;15.70;;;11.70;99.90;;;;;;4189840;28;20209;-80
2021/09/05 07:12:59;;;;;;;31.20;15.73;;;11.70;99.90;;;;;;4212225;28;20212;-80
2021/09/05 07:15:01;;;;;;;33.87;16.10;;;11.80;99.90;;;;;;4222590;22;20289;-80
2021/09/05 07:17:05;;;;;;;33.70;14.77;;;11.90;99.90;;;;;;4210484;28;20624;-76
2021/09/05 07:19:07;;;;;;;33.67;15.93;;;11.90;99.90;;;;;;4212996;28;20226;-81
2021/09/05 07:21:08;;;;;;;38.90;16.63;;;12.00;99.90;;;;;;4214959;28;20215;-76
2021/09/05 07:23:10;;;;;;;36.73;15.67;;;12.00;99.90;;;;;;4211932;28;20211;-76
2021/09/05 07:25:12;;;;;;;38.47;15.87;;;12.00;99.90;;;;;;4202393;28;20236;-76
2021/09/05 07:27:15;;;;;;;37.67;16.47;;;12.10;99.90;;;;;;4198011;28;20682;-76
2021/09/05 07:29:18;;;;;;;36.23;15.53;;;12.10;99.90;;;;;;4196580;28;20213;-76
2021/09/05 07:31:19;;;;;;;34.83;15.60;;;12.20;99.90;;;;;;4194431;28;20302;-79
2021/09/05 07:33:21;;;;;;;32.93;14.97;;;12.20;99.90;;;;;;4196108;28;20586;-76
2021/09/05 07:35:23;;;;;;;35.53;15.20;;;12.20;99.90;;;;;;4198105;28;20416;-76
2021/09/05 07:37:24;;;;;;;38.57;15.13;;;12.30;99.90;;;;;;4198232;28;20285;-78
2021/09/05 07:39:26;;;;;;;37.87;16.07;;;12.40;99.90;;;;;;4196638;28;20209;-76
2021/09/05 07:41:28;;;;;;;38.73;16.07;;;12.50;99.90;;;;;;4197566;28;20251;-78
2021/09/05 07:43:32;;;;;;;33.60;15.73;;;12.50;99.90;;;;;;4196953;28;20209;-76
2021/09/05 07:45:34;;;;;;;34.93;16.03;;;12.60;99.90;;;;;;4198348;28;20233;-79
2021/09/05 07:47:36;;;;;;;32.00;14.57;;;12.70;99.90;;;;;;4197119;28;20300;-77
2021/09/05 07:49:38;;;;;;;32.33;15.20;;;12.70;99.90;;;;;;4189926;28;20207;-76
2021/09/05 07:51:39;;;;;;;33.37;14.90;;;12.80;99.90;;;;;;4184642;28;20205;-76
2021/09/05 07:53:41;;;;;;;30.50;14.13;;;12.80;99.90;;;;;;4196726;28;20651;-77
2021/09/05 07:55:43;;;;;;;29.23;14.40;;;12.90;99.90;;;;;;4194813;28;20226;-77
2021/09/05 07:57:44;;;;;;;30.17;14.23;;;13.00;99.90;;;;;;4181648;28;20217;-79
2021/09/05 07:59:48;;;;;;;30.77;13.90;;;13.00;99.90;;;;;;4205336;28;20213;-79
2021/09/05 08:01:49;;;;;;;28.03;14.20;;;13.10;99.90;;;;;;4205901;28;20210;-76
2021/09/05 08:03:53;;;;;;;25.77;13.03;;;13.20;99.90;;;;;;4199862;28;20211;-80
2021/09/05 08:05:55;;;;;;;27.47;13.10;;;13.30;99.90;;;;;;4200324;28;20316;-77
2021/09/05 08:07:56;;;;;;;28.87;13.57;;;13.40;99.90;;;;;;4193931;28;20206;-79
2021/09/05 08:09:58;;;;;;;26.90;13.37;;;13.60;99.90;;;;;;4197890;28;20240;-76
2021/09/05 08:12:00;;;;;;;26.37;13.87;;;13.70;99.90;;;;;;4196119;28;20210;-79
2021/09/05 08:14:02;;;;;;;25.00;12.53;;;13.80;99.90;;;;;;4195107;28;20210;-79
2021/09/05 08:16:05;;;;;;;21.53;11.97;;;13.90;99.90;;;;;;4190595;28;20205;-79
2021/09/05 08:18:07;;;;;;;21.13;11.40;;;14.10;99.90;;;;;;4196056;28;20215;-79
2021/09/05 08:20:10;;;;;;;22.13;11.57;;;14.20;99.90;;;;;;4199069;28;20209;-79
2021/09/05 08:22:12;;;;;;;19.30;10.57;;;14.40;99.90;;;;;;4194643;28;20208;-79
2021/09/05 08:24:13;;;;;;;17.87;10.67;;;14.50;99.90;;;;;;4193711;28;20232;-79
2021/09/05 08:26:15;;;;;;;19.67;10.43;;;14.70;99.90;;;;;;4197137;28;20247;-80
2021/09/05 08:28:17;;;;;;;16.87;10.23;;;14.80;99.90;;;;;;4199405;28;20556;-83
2021/09/05 08:30:18;;;;;;;18.13;10.43;;;15.00;99.90;;;;;;4200989;28;20208;-79
2021/09/05 08:32:21;;;;;;;19.03;9.93;;;15.10;99.90;;;;;;4196424;28;20258;-79
2021/09/05 08:34:23;;;;;;;19.73;10.33;;;15.30;99.90;;;;;;4195616;28;20233;-80
2021/09/05 08:36:25;;;;;;;19.23;11.10;;;15.50;99.90;;;;;;4201324;28;20214;-81
2021/09/05 08:38:27;;;;;;;22.70;11.97;;;15.60;99.90;;;;;;4200762;28;20210;-81
2021/09/05 08:40:29;;;;;;;23.07;12.37;;;15.70;99.90;;;;;;4197763;28;20214;-80
2021/09/05 08:42:33;;;;;;;20.17;11.50;;;15.90;99.90;;;;;;4196798;28;20747;-80
2021/09/05 08:44:34;;;;;;;19.77;10.50;;;16.00;99.90;;;;;;4195276;28;20225;-80
2021/09/05 08:46:38;;;;;;;18.87;11.07;;;16.10;99.90;;;;;;4194142;28;20760;-77
2021/09/05 08:48:42;;;;;;;19.90;11.83;;;16.30;99.90;;;;;;4191308;28;20263;-79
2021/09/05 08:50:46;;;;;;;22.10;12.60;;;16.40;99.90;;;;;;4193772;28;20263;-82
2021/09/05 08:52:47;;;;;;;22.23;12.50;;;16.50;99.90;;;;;;4197429;28;20213;-79
2021/09/05 08:54:49;;;;;;;24.20;12.87;;;16.60;99.90;;;;;;4190439;28;20331;-77
2021/09/05 08:56:52;;;;;;;22.33;12.10;;;16.70;99.90;;;;;;4186275;28;20206;-78
2021/09/05 08:58:54;;;;;;;26.17;12.87;;;16.80;99.90;;;;;;4189303;28;20215;-79
2021/09/05 09:00:55;;;;;;;22.93;13.40;;;16.90;99.90;;;;;;4201090;28;20206;-78
2021/09/05 09:02:59;;;;;;;27.50;13.90;;;17.00;99.90;;;;;;4194938;28;20739;-80
2021/09/05 09:05:02;;;;;;;22.43;13.13;;;17.10;99.90;;;;;;4200146;28;20234;-79
2021/09/05 09:07:09;;;;;;;23.07;13.37;;;17.20;99.90;;;;;;4203235;28;20227;-79
2021/09/05 09:09:11;;;;;;;23.57;13.17;;;17.30;99.90;;;;;;4202325;28;20662;-79
2021/09/05 09:11:13;;;;;;;22.37;12.30;;;17.40;99.90;;;;;;4207753;28;20249;-79
2021/09/05 09:13:27;;;;;;;20.37;12.37;;;17.40;99.90;;;;;;4201822;28;20216;-81
2021/09/05 09:15:30;;;;;;;23.63;12.77;;;17.60;99.90;;;;;;4205701;28;20237;-81
2021/09/05 09:17:38;;;;;;;20.07;12.13;;;17.70;99.90;;;;;;4195666;28;20211;-81
2021/09/05 09:19:45;;;;;;;19.63;11.97;;;17.80;99.90;;;;;;4200162;28;20211;-80
2021/09/05 09:21:48;;;;;;;20.87;11.43;;;17.90;99.90;;;;;;4199479;28;20572;-79
2021/09/05 09:23:50;;;;;;;18.47;10.93;;;18.10;99.90;;;;;;4199678;28;20212;-80
2021/09/05 09:25:55;;;;;;;20.77;11.73;;;18.20;99.90;;;;;;4198655;28;20212;-81
2021/09/05 09:27:57;;;;;;;22.33;12.40;;;18.30;99.90;;;;;;4198022;28;20220;-80
2021/09/05 09:29:59;;;;;;;23.87;13.07;;;18.40;99.90;;;;;;4193959;28;20258;-80
2021/09/05 09:32:05;;;;;;;23.23;13.40;;;18.50;99.90;;;;;;4193276;28;20217;-80
2021/09/05 09:34:07;;;;;;;21.23;12.37;;;18.50;99.90;;;;;;4191188;28;20277;-81
2021/09/05 09:36:11;;;;;;;22.70;13.67;;;18.70;99.90;;;;;;4198549;28;20608;-80
2021/09/05 09:38:16;;;;;;;24.70;14.37;;;18.70;99.90;;;;;;4193275;28;20236;-79
2021/09/05 09:40:25;;;;;;;22.60;12.20;;;18.70;99.90;;;;;;4194748;28;20227;-80
2021/09/05 09:42:31;;;;;;;20.53;12.23;;;18.90;99.90;;;;;;4187284;28;20221;-80
2021/09/05 09:44:33;;;;;;;19.50;12.03;;;18.90;99.90;;;;;;4195912;28;20234;-80
2021/09/05 09:46:38;;;;;;;20.80;12.43;;;19.00;99.90;;;;;;4191005;28;20283;-80
2021/09/05 09:48:43;;;;;;;18.77;12.17;;;19.00;99.90;;;;;;4198249;28;20631;-81
2021/09/05 09:50:45;;;;;;;23.53;12.73;;;19.00;99.90;;;;;;4191950;28;20232;-82
2021/09/05 09:52:47;;;;;;;21.83;12.90;;;19.00;99.90;;;;;;4196958;28;20217;-81
2021/09/05 09:54:50;;;;;;;21.43;12.73;;;19.00;99.90;;;;;;4197381;28;20682;-80
2021/09/05 09:56:53;;;;;;;21.80;12.43;;;19.00;99.90;;;;;;4195614;28;20209;-81
2021/09/05 09:58:56;;;;;;;21.30;12.93;;;19.00;99.90;;;;;;4199671;28;20211;-80
2021/09/05 10:00:59;;;;;;;21.70;12.00;;;19.00;99.90;;;;;;4195938;28;20205;-80
2021/09/05 10:03:02;;;;;;;23.70;13.20;;;19.00;99.90;;;;;;4199931;28;20208;-81
2021/09/05 10:05:05;;;;;;;23.17;12.73;;;19.00;99.90;;;;;;4192162;28;20222;-80
2021/09/05 10:07:07;;;;;;;21.27;12.70;;;19.00;99.90;;;;;;4192807;28;20598;-80
2021/09/05 10:09:08;;;;;;;25.90;12.90;;;19.00;99.90;;;;;;4199197;28;20213;-79
2021/09/05 10:11:12;;;;;;;25.07;13.37;;;19.00;99.90;;;;;;4198182;28;20209;-79
2021/09/05 10:13:14;;;;;;;23.90;13.07;;;19.00;99.90;;;;;;4194841;28;20213;-80
2021/09/05 10:15:16;;;;;;;24.43;13.53;;;19.00;99.90;;;;;;4191574;28;20248;-79
2021/09/05 10:17:19;;;;;;;23.73;12.90;;;19.00;99.90;;;;;;4195166;28;20208;-79
2021/09/05 10:19:22;;;;;;;21.10;13.10;;;19.10;99.90;;;;;;4192739;28;20210;-79
2021/09/05 10:21:24;;;;;;;26.27;13.40;;;19.10;99.90;;;;;;4198166;28;20210;-79
2021/09/05 10:23:28;;;;;;;25.70;13.97;;;19.00;99.90;;;;;;4197731;28;20310;-80